Time;durP1;ratioP1;P1;durP2;ratioP2;P2;SDS_P1;SDS_P2;PMS_P1;PMS_P2;Temp;Humidity;BMP_temperature;BMP_pressure;BME280_temperature;BME280_humidity;BME280_pressure;Samples;Min_cycle;Max_cycle;Signal;HPM_P1;HPM_P2
2021/07/21 00:00:51;;;;;;;3.70;2.95;;;25.60;95.20;;;;;;5120001;28;20032;-92
2021/07/21 00:03:20;;;;;;;3.20;2.90;;;25.60;95.20;;;;;;5103349;28;20023;-92
2021/07/21 00:05:46;;;;;;;2.55;2.25;;;25.60;95.20;;;;;;5100969;28;20058;-92
2021/07/21 00:08:15;;;;;;;2.40;2.20;;;25.60;95.20;;;;;;5102397;28;20024;-91
2021/07/21 00:10:43;;;;;;;2.75;2.50;;;25.60;95.20;;;;;;5102710;28;20028;-92
2021/07/21 00:13:27;;;;;;;2.63;2.42;;;25.60;95.20;;;;;;5100766;28;20469;-93
2021/07/21 00:21:11;;;;;;;3.30;3.00;;;25.60;95.30;;;;;;5125783;28;20035;-93
2021/07/21 00:23:46;;;;;;;2.80;2.25;;;25.60;95.30;;;;;;5107192;28;20413;-92
2021/07/21 00:26:12;;;;;;;3.53;2.83;;;25.60;95.30;;;;;;5088654;28;20118;-93
2021/07/21 00:28:41;;;;;;;2.60;2.40;;;25.60;95.30;;;;;;5104100;28;20128;-93
2021/07/21 00:31:10;;;;;;;2.60;2.40;;;25.60;95.40;;;;;;5104456;28;20080;-92
2021/07/21 00:33:39;;;;;;;2.85;2.42;;;25.60;95.40;;;;;;5105023;28;20036;-93
2021/07/21 00:36:05;;;;;;;2.47;2.28;;;25.60;95.40;;;;;;5124462;28;20031;-92
2021/07/21 00:38:31;;;;;;;2.75;2.45;;;25.60;95.40;;;;;;5124157;28;20045;-92
2021/07/21 00:40:59;;;;;;;3.00;2.53;;;25.60;95.40;;;;;;5103211;28;20057;-92
2021/07/21 00:43:27;;;;;;;2.53;2.28;;;25.60;95.50;;;;;;5101523;28;20061;-92
2021/07/21 00:45:53;;;;;;;2.97;2.50;;;25.60;95.50;;;;;;5104468;28;20081;-92
2021/07/21 00:48:19;;;;;;;2.35;2.15;;;25.60;95.50;;;;;;5105512;28;20044;-92
2021/07/21 00:50:45;;;;;;;3.25;2.58;;;25.60;95.50;;;;;;5104003;28;20027;-91
2021/07/21 00:53:11;;;;;;;2.78;2.40;;;25.60;95.50;;;;;;5110323;28;20058;-92
2021/07/21 00:55:39;;;;;;;3.00;2.53;;;25.60;95.50;;;;;;5105197;28;20111;-92
2021/07/21 00:58:11;;;;;;;2.60;2.40;;;25.60;95.50;;;;;;5104019;28;20028;-92
2021/07/21 01:00:36;;;;;;;3.42;2.65;;;25.60;95.60;;;;;;5105101;28;20056;-92
2021/07/21 01:03:02;;;;;;;2.65;2.45;;;25.50;95.50;;;;;;5105019;28;20087;-92
2021/07/21 01:05:32;;;;;;;3.00;2.70;;;25.50;95.60;;;;;;5121944;28;20054;-92
2021/07/21 01:07:58;;;;;;;2.70;2.50;;;25.60;95.60;;;;;;5103579;28;20027;-92
2021/07/21 01:10:26;;;;;;;2.35;2.15;;;25.50;95.60;;;;;;5104362;28;20048;-92
2021/07/21 01:13:03;;;;;;;2.58;2.38;;;25.50;95.70;;;;;;5103774;28;20028;-93
2021/07/21 01:15:56;;;;;;;2.75;2.42;;;25.50;95.70;;;;;;5106283;28;20047;-92
2021/07/21 01:18:34;;;;;;;2.55;2.30;;;25.50;95.70;;;;;;5107414;28;20044;-92
2021/07/21 01:21:34;;;;;;;2.30;2.10;;;25.50;95.80;;;;;;5104937;28;20104;-92
2021/07/21 01:24:26;;;;;;;2.97;2.33;;;25.50;95.80;;;;;;5103355;28;20031;-92
2021/07/21 01:27:12;;;;;;;3.22;2.60;;;25.50;95.80;;;;;;5105281;28;20024;-92
2021/07/21 01:29:39;;;;;;;2.55;2.20;;;25.50;95.90;;;;;;5120317;28;20110;-92
2021/07/21 01:32:07;;;;;;;2.28;2.08;;;25.50;95.90;;;;;;5102841;28;20047;-92
2021/07/21 01:34:34;;;;;;;2.90;2.63;;;25.50;95.90;;;;;;5100591;28;20031;-93
2021/07/21 01:37:01;;;;;;;2.38;2.17;;;25.50;95.90;;;;;;5103000;28;20115;-92
2021/07/21 01:39:39;;;;;;;3.00;2.75;;;25.50;95.90;;;;;;5102558;28;20088;-92
2021/07/21 01:42:10;;;;;;;2.85;2.55;;;25.50;95.90;;;;;;5103758;28;20027;-92
2021/07/21 01:44:43;;;;;;;2.42;2.03;;;25.50;96.00;;;;;;5103742;28;20121;-92
2021/07/21 01:47:13;;;;;;;3.20;2.55;;;25.50;96.00;;;;;;5105917;28;20099;-92
2021/07/21 01:49:39;;;;;;;2.60;2.40;;;25.50;96.00;;;;;;5088658;28;20028;-92
2021/07/21 01:52:10;;;;;;;2.60;2.28;;;25.50;96.20;;;;;;5104604;28;20046;-92
2021/07/21 01:54:39;;;;;;;2.50;2.25;;;25.50;96.00;;;;;;5106826;28;20035;-92
2021/07/21 01:57:07;;;;;;;2.75;2.20;;;25.50;96.00;;;;;;5104039;28;20031;-93
2021/07/21 01:59:33;;;;;;;2.60;2.08;;;25.50;96.10;;;;;;5113084;28;20037;-94
2021/07/21 02:02:01;;;;;;;2.95;2.33;;;25.50;96.10;;;;;;5122654;27;20080;-93
2021/07/21 02:04:36;;;;;;;2.50;2.22;;;25.50;96.10;;;;;;5106703;28;20035;-93
2021/07/21 02:07:05;;;;;;;2.17;1.98;;;25.50;96.10;;;;;;5103541;28;20114;-93
2021/07/21 02:09:31;;;;;;;2.20;2.00;;;25.50;96.10;;;;;;5119849;28;20027;-93
2021/07/21 02:11:57;;;;;;;2.55;2.20;;;25.50;96.10;;;;;;5086021;28;20104;-92
2021/07/21 02:14:27;;;;;;;2.88;2.40;;;25.50;96.10;;;;;;5120118;28;20081;-93
2021/07/21 02:16:53;;;;;;;2.22;1.98;;;25.50;96.10;;;;;;5119210;28;20046;-94
2021/07/21 02:19:20;;;;;;;2.30;2.08;;;25.50;96.20;;;;;;5100061;28;20027;-92
2021/07/21 02:21:46;;;;;;;2.28;2.08;;;25.50;96.20;;;;;;5101370;28;20024;-93
2021/07/21 02:24:15;;;;;;;2.63;2.30;;;25.50;96.20;;;;;;5103525;28;20100;-94
2021/07/21 02:26:41;;;;;;;3.20;2.55;;;25.50;96.20;;;;;;5101948;28;20055;-92
2021/07/21 02:29:08;;;;;;;2.45;2.25;;;25.50;96.20;;;;;;5104534;28;20049;-92
2021/07/21 02:31:41;;;;;;;2.10;1.90;;;25.50;96.20;;;;;;5104474;28;20023;-93
2021/07/21 02:34:14;;;;;;;2.40;2.20;;;25.50;96.20;;;;;;5102030;28;20193;-93
2021/07/21 02:36:41;;;;;;;1.95;1.73;;;25.50;96.20;;;;;;5102050;28;20023;-93
2021/07/21 02:39:09;;;;;;;2.47;2.00;;;25.50;96.20;;;;;;5103555;28;20027;-93
2021/07/21 02:41:37;;;;;;;1.95;1.80;;;25.50;96.20;;;;;;5102046;28;20074;-93
2021/07/21 02:44:10;;;;;;;2.60;2.35;;;25.50;96.20;;;;;;5101171;28;20028;-92
2021/07/21 02:46:36;;;;;;;2.22;2.03;;;25.50;96.20;;;;;;5103552;28;20024;-92
2021/07/21 02:49:02;;;;;;;2.25;2.05;;;25.40;96.20;;;;;;5100823;28;20050;-93
2021/07/21 02:51:33;;;;;;;2.20;2.00;;;25.40;96.20;;;;;;5102524;28;20451;-93
2021/07/21 02:54:25;;;;;;;2.15;1.95;;;25.40;96.20;;;;;;5103431;28;20119;-92
2021/07/21 02:56:57;;;;;;;2.55;2.08;;;25.40;96.20;;;;;;5103218;28;20020;-93
2021/07/21 02:59:30;;;;;;;2.15;1.95;;;25.40;96.20;;;;;;5101656;28;20023;-93
2021/07/21 03:02:00;;;;;;;2.10;1.95;;;25.40;96.20;;;;;;5123611;28;20026;-92
2021/07/21 03:04:27;;;;;;;1.90;1.80;;;25.40;96.20;;;;;;5102669;28;20024;-92
2021/07/21 03:06:56;;;;;;;2.78;2.38;;;25.40;96.20;;;;;;5087505;28;20063;-92
2021/07/21 03:09:24;;;;;;;2.15;1.95;;;25.40;96.20;;;;;;5137275;27;20023;-94
2021/07/21 03:11:54;;;;;;;2.30;2.10;;;25.40;96.20;;;;;;5106410;28;20024;-92
2021/07/21 03:14:21;;;;;;;1.88;1.77;;;25.40;96.20;;;;;;5102552;28;20044;-92
2021/07/21 03:16:51;;;;;;;2.55;1.88;;;25.40;96.20;;;;;;5100870;28;20054;-92
2021/07/21 03:19:20;;;;;;;2.00;1.80;;;25.40;96.20;;;;;;5098166;28;20110;-92
2021/07/21 03:21:46;;;;;;;1.95;1.83;;;25.40;96.20;;;;;;5100156;28;20038;-93
2021/07/21 03:24:13;;;;;;;1.90;1.80;;;25.40;96.20;;;;;;5081202;28;20092;-92
2021/07/21 03:26:38;;;;;;;2.25;2.05;;;25.40;96.20;;;;;;5082281;28;20024;-92
2021/07/21 03:29:06;;;;;;;2.13;1.92;;;25.40;96.20;;;;;;5083148;28;20030;-93
2021/07/21 03:31:31;;;;;;;2.42;2.15;;;25.40;96.20;;;;;;5079520;28;20028;-93
2021/07/21 03:34:11;;;;;;;2.40;2.10;;;25.40;96.20;;;;;;5062232;28;20042;-92
2021/07/21 03:36:45;;;;;;;2.83;1.95;;;25.40;96.20;;;;;;5078756;28;20086;-93
2021/07/21 03:39:11;;;;;;;;;;;25.40;96.40;;;;;;5081358;28;20458;-93
2021/07/21 03:41:38;;;;;;;1.85;1.75;;;25.40;96.20;;;;;;5097226;28;19953;-92
2021/07/21 03:44:09;;;;;;;2.40;2.10;;;25.30;96.20;;;;;;5096870;28;20466;-93
2021/07/21 03:46:39;;;;;;;2.00;1.70;;;25.30;96.20;;;;;;5097275;28;20024;-92
2021/07/21 03:49:06;;;;;;;2.30;2.10;;;25.30;96.20;;;;;;5097507;28;20073;-92
2021/07/21 03:51:33;;;;;;;2.00;1.80;;;25.30;96.10;;;;;;5081696;28;20032;-92
2021/07/21 03:54:01;;;;;;;2.20;2.00;;;25.30;96.10;;;;;;5062807;28;20130;-92
2021/07/21 03:56:28;;;;;;;2.30;2.10;;;25.30;96.10;;;;;;5083444;28;20079;-91
2021/07/21 03:58:55;;;;;;;2.20;2.03;;;25.30;96.10;;;;;;5085694;28;20028;-91
2021/07/21 04:01:22;;;;;;;2.10;1.90;;;25.30;96.10;;;;;;5101979;28;20020;-92
2021/07/21 04:03:51;;;;;;;2.35;2.15;;;25.30;96.10;;;;;;5085869;28;20039;-93
2021/07/21 04:06:18;;;;;;;2.53;2.33;;;25.30;96.10;;;;;;5085254;28;20028;-90
2021/07/21 04:08:45;;;;;;;2.20;2.00;;;25.30;96.10;;;;;;5065306;28;20063;-90
2021/07/21 04:11:12;;;;;;;2.30;2.10;;;25.30;96.10;;;;;;5102674;28;20077;-90
2021/07/21 04:13:40;;;;;;;1.80;1.70;;;25.30;96.10;;;;;;5073167;28;20040;-89
2021/07/21 04:16:12;;;;;;;2.00;1.80;;;25.30;96.10;;;;;;5100722;28;20490;-96
2021/07/21 04:18:39;;;;;;;1.80;1.70;;;25.30;96.10;;;;;;5102486;28;20044;-90
2021/07/21 04:21:08;;;;;;;2.13;1.92;;;25.30;96.10;;;;;;5082848;28;20036;-90
2021/07/21 04:23:39;;;;;;;2.35;2.15;;;25.30;96.10;;;;;;5082265;28;20032;-90
2021/07/21 04:26:05;;;;;;;1.95;1.83;;;25.30;96.10;;;;;;5104317;28;20024;-90
2021/07/21 04:28:34;;;;;;;2.00;1.90;;;25.30;96.10;;;;;;5083361;28;20031;-89
2021/07/21 04:31:00;;;;;;;2.47;2.03;;;25.30;96.20;;;;;;5068600;28;20393;-90
2021/07/21 04:33:27;;;;;;;2.03;1.83;;;25.30;96.20;;;;;;5066904;28;20189;-90
2021/07/21 04:35:54;;;;;;;1.80;1.70;;;25.30;96.20;;;;;;5068645;28;20112;-90
2021/07/21 04:38:20;;;;;;;2.20;2.00;;;25.30;96.20;;;;;;5079861;28;20020;-89
2021/07/21 04:40:46;;;;;;;2.63;2.28;;;25.30;96.20;;;;;;5064864;28;20111;-90
2021/07/21 04:43:13;;;;;;;2.20;2.00;;;25.30;96.20;;;;;;5102480;28;20028;-90
2021/07/21 04:45:43;;;;;;;2.47;2.03;;;25.30;96.30;;;;;;5086797;28;20095;-89
2021/07/21 04:48:15;;;;;;;2.22;1.80;;;25.30;96.30;;;;;;5101467;28;20095;-90
2021/07/21 04:50:43;;;;;;;2.17;1.90;;;25.30;96.30;;;;;;5100688;28;20106;-90
2021/07/21 04:53:13;;;;;;;2.42;2.22;;;25.30;96.40;;;;;;5101289;28;20035;-90
2021/07/21 04:55:46;;;;;;;2.17;1.98;;;25.30;96.40;;;;;;5087316;28;20050;-88
2021/07/21 04:58:12;;;;;;;2.20;2.00;;;25.30;96.40;;;;;;5105117;28;20028;-89
2021/07/21 05:00:38;;;;;;;2.33;2.10;;;25.30;96.50;;;;;;5085076;28;20032;-90
2021/07/21 05:03:08;;;;;;;2.28;2.08;;;25.30;96.50;;;;;;5087352;28;20495;-89
2021/07/21 05:05:39;;;;;;;2.47;2.28;;;25.30;96.50;;;;;;5071470;28;20032;-90
2021/07/21 05:08:05;;;;;;;2.00;1.80;;;25.30;96.60;;;;;;5104048;28;20055;-89
2021/07/21 05:10:32;;;;;;;2.15;1.95;;;25.30;96.70;;;;;;5085546;28;20206;-89
2021/07/21 05:12:58;;;;;;;2.55;2.35;;;25.30;96.70;;;;;;5068487;28;20142;-90
2021/07/21 05:15:23;;;;;;;2.10;1.90;;;25.30;96.80;;;;;;5101237;28;20055;-89
2021/07/21 05:17:49;;;;;;;2.30;2.10;;;25.30;97.00;;;;;;5084367;28;20493;-89
2021/07/21 05:20:15;;;;;;;2.40;2.20;;;25.40;96.90;;;;;;5087591;28;20027;-90
2021/07/21 05:22:45;;;;;;;1.95;1.80;;;25.40;96.90;;;;;;5107658;28;20047;-89
2021/07/21 05:25:12;;;;;;;3.10;2.45;;;25.40;97.00;;;;;;5087731;28;20457;-92
2021/07/21 05:27:38;;;;;;;2.15;1.90;;;25.40;97.00;;;;;;5087143;28;20168;-89
2021/07/21 05:30:06;;;;;;;2.33;2.05;;;25.40;97.00;;;;;;5084592;28;20118;-89
2021/07/21 05:32:32;;;;;;;2.03;1.90;;;25.40;97.10;;;;;;5083976;28;20031;-90
2021/07/21 05:34:57;;;;;;;2.60;1.83;;;25.40;97.10;;;;;;5084306;28;20131;-90
2021/07/21 05:37:23;;;;;;;1.88;1.77;;;25.40;97.10;;;;;;5084728;28;20030;-90
2021/07/21 05:39:49;;;;;;;2.38;2.10;;;25.40;97.20;;;;;;5087650;28;20027;-90
2021/07/21 05:42:14;;;;;;;2.75;2.25;;;25.40;97.20;;;;;;5086505;28;20031;-91
2021/07/21 05:44:40;;;;;;;2.35;2.10;;;25.40;97.20;;;;;;5084206;28;20063;-89
2021/07/21 05:47:06;;;;;;;2.13;1.92;;;25.40;97.20;;;;;;5084122;28;20465;-90
2021/07/21 05:49:32;;;;;;;2.30;2.10;;;25.40;97.20;;;;;;5082633;28;20027;-90
2021/07/21 05:51:57;;;;;;;2.38;2.17;;;25.40;97.20;;;;;;5103017;28;20385;-88
2021/07/21 05:54:23;;;;;;;2.17;1.98;;;25.40;97.20;;;;;;5100279;28;20524;-88
2021/07/21 05:56:49;;;;;;;2.22;2.03;;;25.40;97.20;;;;;;5100587;28;20031;-89
2021/07/21 05:59:15;;;;;;;2.33;2.13;;;25.40;97.20;;;;;;5085885;28;20034;-90
2021/07/21 06:01:41;;;;;;;2.22;2.03;;;25.50;97.20;;;;;;5084175;28;20130;-89
2021/07/21 06:04:07;;;;;;;2.30;2.10;;;25.50;97.40;;;;;;5119911;28;20042;-89
2021/07/21 06:06:33;;;;;;;2.55;2.33;;;25.50;97.50;;;;;;5103845;28;20466;-89
2021/07/21 06:08:59;;;;;;;2.30;2.10;;;25.50;97.50;;;;;;5088370;28;20027;-89
2021/07/21 06:11:32;;;;;;;2.40;2.20;;;25.50;97.60;;;;;;5100640;28;20026;-89
2021/07/21 06:14:00;;;;;;;2.42;2.22;;;25.50;97.60;;;;;;5083758;28;20070;-88
2021/07/21 06:16:26;;;;;;;2.72;2.50;;;25.50;97.60;;;;;;5099774;28;20028;-89
2021/07/21 06:18:52;;;;;;;2.95;2.65;;;25.50;97.60;;;;;;5097691;28;20119;-89
2021/07/21 06:21:47;;;;;;;2.80;2.50;;;25.50;97.60;;;;;;5098539;28;20055;-93
2021/07/21 06:24:13;;;;;;;2.70;2.50;;;25.50;97.50;;;;;;5065511;28;20143;-88
2021/07/21 06:26:38;;;;;;;2.58;2.38;;;25.50;97.60;;;;;;5065773;28;20495;-89
2021/07/21 06:34:15;;;;;;;3.30;2.95;;;25.50;97.50;;;;;;5411512;22;20076;-92
2021/07/21 06:36:40;;;;;;;2.90;2.55;;;25.50;97.60;;;;;;5018242;28;20474;-90
2021/07/21 06:39:06;;;;;;;4.35;3.45;;;25.60;97.60;;;;;;5035800;28;20029;-89
2021/07/21 06:41:32;;;;;;;3.15;2.85;;;25.60;97.60;;;;;;5017326;28;20030;-89
2021/07/21 06:44:00;;;;;;;3.47;2.75;;;25.60;97.60;;;;;;5017439;28;20079;-89
2021/07/21 06:46:29;;;;;;;3.63;3.17;;;25.60;97.50;;;;;;5017212;28;20041;-93
2021/07/21 06:48:55;;;;;;;3.67;3.00;;;25.60;97.50;;;;;;5017483;28;20025;-89
2021/07/21 06:51:21;;;;;;;2.97;2.65;;;25.60;97.50;;;;;;5037193;28;20029;-89
2021/07/21 06:53:50;;;;;;;3.33;2.70;;;25.60;97.50;;;;;;5018467;28;20552;-90
2021/07/21 06:56:16;;;;;;;3.03;2.63;;;25.60;97.50;;;;;;5034582;28;20036;-91
2021/07/21 06:58:42;;;;;;;4.05;3.00;;;25.60;97.40;;;;;;5016530;28;20414;-89
2021/07/21 07:01:08;;;;;;;3.20;2.70;;;25.60;97.40;;;;;;5000907;28;20423;-90
2021/07/21 07:03:39;;;;;;;2.97;2.67;;;25.60;97.40;;;;;;5016833;28;20035;-90
2021/07/21 07:06:08;;;;;;;3.40;2.90;;;25.60;97.30;;;;;;5003224;28;20461;-89
2021/07/21 07:08:44;;;;;;;3.35;2.95;;;25.60;97.30;;;;;;5025841;28;20042;-89
2021/07/21 07:11:10;;;;;;;2.53;2.33;;;25.60;97.20;;;;;;5019722;28;20475;-89
2021/07/21 07:13:36;;;;;;;2.72;2.42;;;25.60;97.20;;;;;;5002378;28;20398;-89
2021/07/21 07:16:03;;;;;;;3.42;2.85;;;25.60;97.10;;;;;;5035396;28;20021;-88
2021/07/21 07:18:28;;;;;;;3.00;2.70;;;25.60;97.10;;;;;;5036081;28;20033;-88
2021/07/21 07:20:57;;;;;;;2.78;2.50;;;25.60;97.10;;;;;;5022138;28;20048;-88
2021/07/21 07:23:26;;;;;;;3.05;2.53;;;25.60;97.10;;;;;;5022336;28;20032;-89
2021/07/21 07:25:52;;;;;;;2.60;2.30;;;25.60;97.10;;;;;;5006597;28;20030;-89
2021/07/21 07:28:18;;;;;;;3.00;2.70;;;25.60;97.00;;;;;;5021211;28;20032;-89
2021/07/21 07:30:43;;;;;;;3.03;2.72;;;25.60;97.00;;;;;;5009209;28;20132;-89
2021/07/21 07:33:09;;;;;;;2.53;2.33;;;25.60;97.00;;;;;;5045900;28;20025;-90
2021/07/21 07:35:37;;;;;;;2.72;2.38;;;25.60;96.90;;;;;;5021152;28;20041;-90
2021/07/21 07:38:03;;;;;;;2.85;2.20;;;25.60;96.80;;;;;;5039318;28;20026;-89
2021/07/21 07:40:29;;;;;;;3.65;2.67;;;25.70;96.80;;;;;;5011135;28;20030;-90
2021/07/21 07:42:55;;;;;;;2.83;2.40;;;25.60;96.90;;;;;;5025373;28;20037;-89
2021/07/21 07:45:21;;;;;;;2.65;2.45;;;25.60;96.60;;;;;;5035708;28;20029;-90
2021/07/21 07:47:47;;;;;;;2.92;2.63;;;25.60;96.50;;;;;;5002732;28;20053;-89
2021/07/21 07:50:12;;;;;;;2.25;2.05;;;25.70;96.50;;;;;;5017644;28;20036;-89
2021/07/21 07:52:39;;;;;;;2.78;2.45;;;25.60;96.40;;;;;;5018447;28;20061;-90
2021/07/21 07:55:06;;;;;;;2.55;2.35;;;25.70;96.30;;;;;;5002707;28;20034;-90
2021/07/21 07:57:32;;;;;;;2.80;2.50;;;25.70;96.30;;;;;;5018779;28;20030;-89
2021/07/21 07:59:59;;;;;;;2.55;2.13;;;25.70;96.30;;;;;;5017262;28;20029;-90
2021/07/21 08:02:24;;;;;;;2.63;2.10;;;25.70;96.20;;;;;;5019053;28;20095;-90
2021/07/21 08:04:50;;;;;;;2.75;2.53;;;25.60;96.20;;;;;;4999882;28;20475;-90
2021/07/21 08:07:16;;;;;;;2.35;2.10;;;25.70;96.20;;;;;;5000408;28;20029;-90
2021/07/21 08:09:42;;;;;;;2.40;2.20;;;25.70;96.20;;;;;;5017302;28;20026;-90
2021/07/21 08:12:10;;;;;;;2.58;2.30;;;25.70;96.10;;;;;;5019436;28;20041;-89
2021/07/21 08:14:36;;;;;;;2.20;2.00;;;25.70;96.10;;;;;;5000271;28;20033;-92
2021/07/21 08:17:02;;;;;;;2.33;2.13;;;25.70;96.00;;;;;;5000735;28;20172;-90
2021/07/21 08:19:28;;;;;;;2.08;1.88;;;25.70;96.00;;;;;;5000960;28;20040;-90
2021/07/21 08:21:57;;;;;;;2.83;2.53;;;25.70;95.90;;;;;;5002398;28;20454;-90
2021/07/21 08:24:23;;;;;;;2.40;2.20;;;25.70;95.80;;;;;;5005400;28;20084;-89
2021/07/21 08:26:49;;;;;;;3.17;2.33;;;25.70;95.80;;;;;;5040728;28;20057;-89
2021/07/21 08:29:15;;;;;;;2.22;1.95;;;25.70;95.70;;;;;;5024536;28;20148;-90
2021/07/21 08:31:41;;;;;;;2.20;2.00;;;25.70;95.60;;;;;;5007310;28;20494;-90
2021/07/21 08:34:09;;;;;;;2.75;2.30;;;25.70;95.60;;;;;;5023713;28;20494;-89
2021/07/21 08:36:38;;;;;;;2.47;2.10;;;25.60;95.50;;;;;;5005768;28;20087;-89
2021/07/21 08:39:06;;;;;;;2.10;1.90;;;25.70;95.50;;;;;;5041894;28;20051;-89
2021/07/21 08:41:33;;;;;;;2.10;1.90;;;25.70;95.40;;;;;;5023548;28;20539;-90
2021/07/21 08:43:59;;;;;;;2.30;2.10;;;25.70;95.40;;;;;;5006623;28;20556;-90
2021/07/21 08:46:25;;;;;;;2.58;2.03;;;25.70;95.50;;;;;;5021932;28;20025;-91
2021/07/21 08:48:52;;;;;;;2.28;2.08;;;25.70;95.50;;;;;;5021051;28;20112;-89
2021/07/21 08:51:24;;;;;;;2.53;2.33;;;25.70;95.50;;;;;;5020075;28;20029;-90
2021/07/21 08:53:51;;;;;;;2.53;2.30;;;25.70;95.60;;;;;;5019673;28;20520;-89
2021/07/21 08:56:18;;;;;;;2.97;2.65;;;25.70;95.70;;;;;;5018193;28;20030;-90
2021/07/21 08:58:48;;;;;;;3.30;2.90;;;25.70;95.70;;;;;;4999878;28;20495;-90
2021/07/21 09:01:16;;;;;;;4.05;2.80;;;25.70;95.70;;;;;;5001240;28;20022;-89
2021/07/21 09:03:42;;;;;;;3.42;2.75;;;25.70;95.70;;;;;;5001212;28;20117;-91
2021/07/21 09:06:08;;;;;;;3.33;3.03;;;25.70;95.70;;;;;;5018126;28;20037;-89
2021/07/21 09:08:34;;;;;;;3.70;3.28;;;25.70;95.70;;;;;;5000025;28;20036;-88
2021/07/21 09:11:01;;;;;;;3.60;3.20;;;25.70;95.80;;;;;;4984009;28;20485;-88
2021/07/21 09:13:27;;;;;;;3.30;3.00;;;25.70;95.80;;;;;;5017760;28;20034;-88
2021/07/21 09:15:53;;;;;;;4.00;3.60;;;25.70;95.80;;;;;;4999577;28;20041;-88
2021/07/21 09:18:23;;;;;;;4.18;3.28;;;25.70;95.80;;;;;;4984248;28;20034;-90
2021/07/21 09:20:57;;;;;;;3.58;3.28;;;25.70;95.80;;;;;;5001149;28;20028;-90
2021/07/21 09:23:40;;;;;;;4.00;3.60;;;25.70;95.80;;;;;;5007149;28;20501;-90
2021/07/21 09:26:08;;;;;;;4.38;3.90;;;25.70;95.70;;;;;;5004729;28;20493;-89
2021/07/21 09:28:42;;;;;;;3.97;3.58;;;25.70;95.60;;;;;;5008985;28;20029;-90
2021/07/21 09:31:12;;;;;;;4.25;3.72;;;25.70;95.60;;;;;;5034482;28;20030;-89
2021/07/21 09:33:39;;;;;;;3.90;3.50;;;25.70;95.60;;;;;;5023411;28;20054;-90
2021/07/21 09:36:05;;;;;;;3.70;3.30;;;25.70;95.60;;;;;;4983759;28;20034;-88
2021/07/21 09:38:31;;;;;;;4.75;3.70;;;25.70;95.50;;;;;;5016686;28;20026;-89
2021/07/21 09:41:06;;;;;;;3.83;3.38;;;25.70;95.50;;;;;;4990059;28;20487;-88
2021/07/21 09:43:37;;;;;;;4.35;3.67;;;25.70;95.50;;;;;;4999918;28;20463;-89
2021/07/21 09:46:07;;;;;;;4.35;3.72;;;25.70;95.50;;;;;;5003881;28;20025;-88
2021/07/21 09:48:41;;;;;;;3.88;3.47;;;25.70;95.50;;;;;;5018775;28;20030;-89
2021/07/21 09:51:11;;;;;;;4.35;3.58;;;25.80;95.80;;;;;;5018365;28;20079;-89
2021/07/21 09:53:49;;;;;;;3.90;3.50;;;25.70;95.40;;;;;;5018672;28;20061;-89
2021/07/21 09:56:31;;;;;;;3.85;3.22;;;25.70;95.40;;;;;;5006339;28;20033;-89
2021/07/21 09:59:34;;;;;;;3.65;3.30;;;25.80;95.40;;;;;;5027495;28;20029;-90
2021/07/21 10:02:14;;;;;;;3.22;2.75;;;25.80;95.40;;;;;;5019003;28;20021;-88
2021/07/21 10:04:41;;;;;;;3.17;2.88;;;25.80;95.40;;;;;;5019937;28;20553;-89
2021/07/21 10:07:49;;;;;;;3.42;2.95;;;25.80;95.40;;;;;;5019404;28;20049;-88
2021/07/21 10:09:56;;;;;;;3.30;2.95;;;25.80;95.40;;;;;;5011478;28;20033;-88
2021/07/21 10:12:24;;;;;;;3.08;2.78;;;25.80;95.40;;;;;;5025867;28;20036;-89
2021/07/21 10:15:00;;;;;;;3.85;2.92;;;25.80;95.40;;;;;;5026730;28;20029;-89
2021/07/21 10:17:29;;;;;;;3.40;3.10;;;25.80;95.50;;;;;;5030881;28;20018;-89
2021/07/21 10:19:56;;;;;;;3.67;2.97;;;25.80;95.50;;;;;;5026946;28;20074;-89
2021/07/21 10:22:22;;;;;;;3.00;2.70;;;25.80;95.50;;;;;;5019923;28;20033;-88
2021/07/21 10:24:51;;;;;;;3.33;3.00;;;25.80;95.50;;;;;;5031079;28;20029;-90
2021/07/21 10:27:17;;;;;;;2.83;2.53;;;25.80;95.50;;;;;;5042970;28;20014;-89
2021/07/21 10:29:44;;;;;;;3.28;2.80;;;25.90;95.50;;;;;;5026415;28;20037;-90
2021/07/21 10:32:11;;;;;;;3.42;2.72;;;25.90;95.50;;;;;;5017967;28;20806;-88
2021/07/21 10:34:39;;;;;;;3.15;2.85;;;25.80;95.40;;;;;;5002937;28;20076;-91
2021/07/21 10:37:05;;;;;;;2.97;2.67;;;25.90;95.50;;;;;;5026511;28;20083;-88
2021/07/21 10:39:36;;;;;;;3.05;2.60;;;25.90;95.40;;;;;;5024207;28;20463;-90
2021/07/21 10:42:10;;;;;;;3.13;2.67;;;25.90;95.40;;;;;;5034996;28;20414;-90
2021/07/21 10:44:36;;;;;;;;;;;25.90;95.40;;;;;;5035521;28;20029;-90
2021/07/21 10:47:24;;;;;;;3.08;2.78;;;25.90;95.40;;;;;;5001229;28;19913;-91
2021/07/21 10:50:08;;;;;;;2.55;2.35;;;25.90;95.40;;;;;;5017450;28;20053;-91
2021/07/21 10:52:51;;;;;;;2.90;2.60;;;25.90;95.40;;;;;;5006513;28;20033;-92
2021/07/21 10:55:24;;;;;;;3.15;2.85;;;25.90;95.40;;;;;;5019149;28;20087;-92
2021/07/21 11:00:52;;;;;;;3.75;2.83;;;25.90;95.30;;;;;;5047082;28;20619;-92
2021/07/21 11:04:02;;;;;;;3.13;2.70;;;25.90;95.40;;;;;;5033186;28;20112;-92
2021/07/21 11:07:00;;;;;;;3.20;2.70;;;25.90;95.30;;;;;;5042485;28;20030;-91
2021/07/21 11:09:41;;;;;;;;;;;;;;;;;;;;;
2021/07/21 11:12:09;;;;;;;2.85;2.30;;;25.90;95.30;;;;;;5053573;28;20045;-91
2021/07/21 11:15:10;;;;;;;;;;;;;;;;;;;;;
2021/07/21 11:18:07;;;;;;;;;;;;;;;;;;;;;
2021/07/21 11:24:12;;;;;;;2.92;2.60;;;25.90;95.30;;;;;;5001234;28;20049;-93
2021/07/21 11:26:42;;;;;;;3.08;2.63;;;25.90;95.20;;;;;;4985590;28;20459;-94
2021/07/21 11:29:27;;;;;;;2.97;2.67;;;25.90;95.20;;;;;;4986076;28;20080;-94
2021/07/21 11:31:56;;;;;;;3.17;2.88;;;26.00;95.20;;;;;;4986388;28;20030;-92
2021/07/21 11:34:39;;;;;;;3.05;2.75;;;26.00;95.20;;;;;;4982260;28;20049;-93
2021/07/21 11:37:38;;;;;;;2.83;2.50;;;26.00;95.20;;;;;;4983543;28;20034;-94
2021/07/21 11:40:24;;;;;;;;;;;;;;;;;;;;;
2021/07/21 11:43:35;;;;;;;3.30;3.00;;;26.00;95.20;;;;;;5024310;28;20129;-95
2021/07/21 11:46:42;;;;;;;3.28;2.58;;;26.00;95.10;;;;;;5035504;28;20053;-91
2021/07/21 11:49:25;;;;;;;3.53;2.92;;;26.00;95.10;;;;;;5025872;28;20032;-91
2021/07/21 11:55:30;;;;;;;3.67;2.80;;;26.00;95.20;;;;;;5073068;27;1397356;-87
2021/07/21 11:57:56;;;;;;;2.70;2.47;;;26.00;95.20;;;;;;5093397;28;20032;-89
2021/07/21 12:00:25;;;;;;;2.92;2.63;;;26.00;95.10;;;;;;5093855;28;20035;-91
2021/07/21 12:03:01;;;;;;;3.80;3.20;;;26.00;95.10;;;;;;5102945;28;20028;-91
2021/07/21 12:05:27;;;;;;;2.90;2.60;;;26.00;95.00;;;;;;5098537;28;20021;-89
2021/07/21 12:07:58;;;;;;;3.40;2.75;;;26.00;95.00;;;;;;5097415;28;20087;-90
2021/07/21 12:10:26;;;;;;;3.17;2.88;;;26.00;95.00;;;;;;5097243;28;20031;-88
2021/07/21 12:12:56;;;;;;;3.63;3.03;;;26.00;95.00;;;;;;5099674;28;20028;-89
2021/07/21 12:15:22;;;;;;;3.00;2.70;;;26.00;95.00;;;;;;5097035;28;20028;-89
2021/07/21 12:18:01;;;;;;;;;;;;;;;;;;;;;
2021/07/21 12:20:59;;;;;;;3.08;2.72;;;26.00;95.00;;;;;;5041874;28;20142;-91
2021/07/21 12:23:35;;;;;;;3.60;3.00;;;26.00;95.00;;;;;;5038013;28;20119;-92
2021/07/21 12:26:10;;;;;;;3.63;3.10;;;26.00;95.00;;;;;;5026309;28;20044;-91
2021/07/21 12:38:54;;;;;;;3.83;2.90;;;26.00;94.80;;;;;;5059718;28;20029;-93
2021/07/21 12:45:09;;;;;;;4.07;3.22;;;26.00;94.70;;;;;;4992657;28;20026;-90
2021/07/21 12:48:05;;;;;;;3.53;3.10;;;26.00;94.70;;;;;;4976238;28;20510;-91
2021/07/21 12:50:41;;;;;;;4.35;3.30;;;26.00;94.70;;;;;;4976810;28;20027;-91
2021/07/21 12:56:48;;;;;;;3.53;3.15;;;26.10;94.80;;;;;;4968315;28;20064;-91
2021/07/21 12:59:21;;;;;;;3.75;2.70;;;26.10;94.80;;;;;;4991529;28;20042;-90
2021/07/21 13:01:57;;;;;;;3.03;2.72;;;26.00;94.80;;;;;;4976264;28;20104;-91
2021/07/21 13:04:49;;;;;;;3.30;3.00;;;26.10;94.80;;;;;;4994541;28;20039;-91
2021/07/21 13:07:37;;;;;;;3.53;3.20;;;26.10;94.80;;;;;;4963578;28;20066;-91
2021/07/21 13:10:19;;;;;;;;;;;;;;;;;;;;;
2021/07/21 13:12:51;;;;;;;3.53;3.17;;;26.10;94.80;;;;;;4980463;28;20122;-90
2021/07/21 13:18:25;;;;;;;4.13;3.40;;;26.10;94.70;;;;;;4985545;28;20074;-93
2021/07/21 13:31:43;;;;;;;4.05;3.30;;;26.10;94.60;;;;;;4936696;28;20117;-91
2021/07/21 13:34:43;;;;;;;;;;;;;;;;;;;;;
2021/07/21 13:43:35;;;;;;;4.60;4.00;;;26.10;94.70;;;;;;4944065;29;20091;-92
2021/07/21 13:46:52;;;;;;;;;;;;;;;;;;;;;
2021/07/21 13:52:49;;;;;;;;;;;;;;;;;;;;;
2021/07/21 14:05:33;;;;;;;;;;;;;;;;;;;;;
2021/07/21 14:08:13;;;;;;;5.53;4.43;;;26.20;94.80;;;;;;4873477;29;20104;-96
2021/07/21 14:17:28;;;;;;;5.18;4.10;;;26.20;94.70;;;;;;4956085;28;20008;-90
2021/07/21 14:48:03;;;;;;;4.53;3.53;;;26.30;94.90;;;;;;4940891;28;20067;-92
2021/07/21 14:53:52;;;;;;;4.65;4.05;;;26.30;94.80;;;;;;4989155;28;20518;-92
2021/07/21 15:13:37;;;;;;;6.15;4.75;;;26.30;94.90;;;;;;5078125;28;20102;-93
2021/07/21 15:16:05;;;;;;;5.43;4.45;;;26.30;94.90;;;;;;5063551;28;20148;-90
2021/07/21 15:18:31;;;;;;;5.22;4.70;;;26.30;94.90;;;;;;5060858;28;20135;-91
2021/07/21 15:34:43;;;;;;;5.95;4.97;;;26.30;94.90;;;;;;5076119;28;20041;-90
2021/07/21 15:40:52;;;;;;;5.43;4.75;;;26.40;95.00;;;;;;5079370;28;20031;-91